KLM129 EHAM-DNMM
Flight info
| Callsign | KLM129 |
|---|---|
| Flight time | N/A |
| Altitude | 23000 |
| Route | WOODY N872 CIV/N0475F370 N872 MEDIL DCT KOVIN DCT DUCRA UM728 RESMI UN857 DISAK DCT DIRMO DCT ETAMO DCT ADEKA/N0470F390 DCT MOKDI DCT MEN DCT BADAM DCT KANIG DCT KENAS N855 GENIO N859 MOGIL UZ333 ZEM/N0464F400 UZ333 KAHIL UB726 GHA/N0465F390 UA615 TMS UA604 EREBO/N0472F400 UY212 MIGNI UY333 KIGRA UB731 BUDSI BUDSI1N |
| Aircraft | A333/H-SDE3GHIJ2J3J5M1RVWXY/LB2D1 |
Departure
| Time | N/A |
|---|---|
| Airport | Amsterdam Airport Schiphol (EHAM) |
Arrival
| Time | 2026-05-03 21:06 |
|---|---|
| Airport | Murtala Muhammed International Airport (DNMM) |
| Time | Latitude | Longitude | Altitude | Speed | Heading |
|---|---|---|---|---|---|
| 2026-05-03 20:21 | 11.37558 | 4.08096 | 36842 ft | 474 kts | 199° |
| 2026-05-03 20:22 | 11.31268 | 4.06195 | 36843 ft | 474 kts | 199° |
| 2026-05-03 20:22 | 11.24930 | 4.04281 | 36845 ft | 475 kts | 198° |
| 2026-05-03 20:23 | 11.18557 | 4.02356 | 36846 ft | 478 kts | 198° |
| 2026-05-03 20:23 | 11.12162 | 4.00427 | 36848 ft | 479 kts | 198° |
| 2026-05-03 20:24 | 11.05779 | 3.98502 | 36853 ft | 479 kts | 198° |
| 2026-05-03 20:24 | 10.99426 | 3.96587 | 36851 ft | 478 kts | 198° |
| 2026-05-03 20:25 | 10.93034 | 3.94662 | 36859 ft | 478 kts | 198° |
| 2026-05-03 20:25 | 10.86649 | 3.92738 | 36860 ft | 478 kts | 198° |
| 2026-05-03 20:26 | 10.80268 | 3.90816 | 36864 ft | 478 kts | 198° |
| 2026-05-03 20:26 | 10.73877 | 3.88893 | 36864 ft | 478 kts | 198° |
| 2026-05-03 20:27 | 10.67441 | 3.87111 | 36868 ft | 479 kts | 195° |
| 2026-05-03 20:27 | 10.60907 | 3.85710 | 36871 ft | 480 kts | 193° |
| 2026-05-03 20:28 | 10.54385 | 3.84415 | 36873 ft | 480 kts | 193° |
| 2026-05-03 20:28 | 10.47837 | 3.83127 | 36878 ft | 480 kts | 193° |
| 2026-05-03 20:29 | 10.41276 | 3.81828 | 36880 ft | 480 kts | 193° |
| 2026-05-03 20:29 | 10.34726 | 3.80525 | 36882 ft | 480 kts | 193° |
| 2026-05-03 20:30 | 10.28156 | 3.79216 | 36884 ft | 481 kts | 193° |
| 2026-05-03 20:30 | 10.21591 | 3.77909 | 36884 ft | 481 kts | 193° |
| 2026-05-03 20:31 | 10.15070 | 3.76612 | 36883 ft | 480 kts | 193° |
| 2026-05-03 20:31 | 10.08668 | 3.75339 | 36840 ft | 480 kts | 192° |
| 2026-05-03 20:32 | 10.02159 | 3.74044 | 36885 ft | 483 kts | 193° |
| 2026-05-03 20:32 | 9.95588 | 3.72740 | 36891 ft | 480 kts | 193° |
| 2026-05-03 20:33 | 9.89024 | 3.71437 | 36894 ft | 480 kts | 193° |
| 2026-05-03 20:33 | 9.82464 | 3.70136 | 36896 ft | 480 kts | 193° |
| 2026-05-03 20:34 | 9.75895 | 3.68832 | 36903 ft | 482 kts | 192° |
| 2026-05-03 20:34 | 9.69373 | 3.67538 | 36898 ft | 482 kts | 192° |
| 2026-05-03 20:35 | 9.62756 | 3.66227 | 36907 ft | 482 kts | 192° |
| 2026-05-03 20:35 | 9.56157 | 3.64919 | 36903 ft | 482 kts | 192° |
| 2026-05-03 20:36 | 9.49577 | 3.63616 | 36908 ft | 482 kts | 192° |
| 2026-05-03 20:36 | 9.42978 | 3.62308 | 36906 ft | 482 kts | 192° |
| 2026-05-03 20:37 | 9.36365 | 3.60999 | 36916 ft | 485 kts | 192° |
| 2026-05-03 20:37 | 9.29723 | 3.59684 | 36918 ft | 486 kts | 192° |
| 2026-05-03 20:38 | 9.23132 | 3.58380 | 36919 ft | 486 kts | 192° |
| 2026-05-03 20:38 | 9.16487 | 3.57161 | 36876 ft | 485 kts | 191° |
| 2026-05-03 20:38 | 9.13151 | 3.56624 | 36630 ft | 479 kts | 190° |
| 2026-05-03 20:39 | 9.09870 | 3.56111 | 36390 ft | 475 kts | 190° |
| 2026-05-03 20:39 | 9.06595 | 3.55598 | 36041 ft | 478 kts | 190° |
| 2026-05-03 20:39 | 9.03288 | 3.55073 | 35418 ft | 482 kts | 191° |
| 2026-05-03 20:39 | 8.99982 | 3.54541 | 34804 ft | 484 kts | 190° |
| 2026-05-03 20:40 | 8.96642 | 3.53998 | 34187 ft | 485 kts | 190° |
| 2026-05-03 20:40 | 8.93311 | 3.53455 | 33529 ft | 486 kts | 190° |
| 2026-05-03 20:40 | 8.89973 | 3.52908 | 32865 ft | 487 kts | 190° |
| 2026-05-03 20:40 | 8.86617 | 3.52359 | 32200 ft | 489 kts | 190° |
| 2026-05-03 20:41 | 8.83287 | 3.51813 | 31495 ft | 492 kts | 190° |
| 2026-05-03 20:41 | 8.79906 | 3.51260 | 30786 ft | 494 kts | 190° |
| 2026-05-03 20:41 | 8.76497 | 3.50702 | 30081 ft | 497 kts | 190° |
| 2026-05-03 20:41 | 8.73082 | 3.50144 | 29188 ft | 497 kts | 190° |
| 2026-05-03 20:42 | 8.69661 | 3.49584 | 28376 ft | 496 kts | 189° |
| 2026-05-03 20:42 | 8.66273 | 3.49031 | 27671 ft | 491 kts | 189° |
| 2026-05-03 20:42 | 8.62908 | 3.48481 | 26988 ft | 487 kts | 189° |
| 2026-05-03 20:42 | 8.59585 | 3.47938 | 26326 ft | 483 kts | 189° |
| 2026-05-03 20:43 | 8.56272 | 3.47397 | 25671 ft | 479 kts | 188° |
| 2026-05-03 20:43 | 8.53003 | 3.46863 | 24999 ft | 475 kts | 188° |
| 2026-05-03 20:43 | 8.49824 | 3.46344 | 24233 ft | 475 kts | 188° |
| 2026-05-03 20:43 | 8.46473 | 3.45798 | 23455 ft | 473 kts | 188° |
| 2026-05-03 20:44 | 8.43219 | 3.45267 | 22426 ft | 475 kts | 187° |
| 2026-05-03 20:44 | 8.39963 | 3.44736 | 21649 ft | 471 kts | 187° |
| 2026-05-03 20:44 | 8.36775 | 3.44213 | 20968 ft | 453 kts | 187° |
| 2026-05-03 20:44 | 8.33745 | 3.43714 | 20491 ft | 432 kts | 186° |
| 2026-05-03 20:45 | 8.30834 | 3.43337 | 20416 ft | 425 kts | 181° |
| 2026-05-03 20:45 | 8.27819 | 3.43101 | 20547 ft | 435 kts | 181° |
| 2026-05-03 20:45 | 8.24811 | 3.42885 | 20795 ft | 442 kts | 181° |
| 2026-05-03 20:45 | 8.21725 | 3.42670 | 20933 ft | 444 kts | 181° |
| 2026-05-03 20:46 | 8.18640 | 3.42457 | 20941 ft | 445 kts | 181° |
| 2026-05-03 20:46 | 8.15551 | 3.42245 | 20940 ft | 445 kts | 181° |
| 2026-05-03 20:46 | 8.12457 | 3.42034 | 20943 ft | 445 kts | 181° |
| 2026-05-03 20:46 | 8.09357 | 3.41822 | 20941 ft | 445 kts | 181° |
| 2026-05-03 20:47 | 8.06273 | 3.41613 | 20971 ft | 446 kts | 181° |
| 2026-05-03 20:47 | 8.03163 | 3.41402 | 21286 ft | 448 kts | 181° |
| 2026-05-03 20:47 | 8.00051 | 3.41190 | 21724 ft | 449 kts | 181° |
| 2026-05-03 20:47 | 7.96966 | 3.40981 | 22108 ft | 450 kts | 182° |
| 2026-05-03 20:48 | 7.93824 | 3.40768 | 22473 ft | 452 kts | 182° |
| 2026-05-03 20:48 | 7.90680 | 3.40548 | 22821 ft | 455 kts | 183° |
| 2026-05-03 20:48 | 7.87534 | 3.40242 | 22870 ft | 451 kts | 184° |
| 2026-05-03 20:48 | 7.84419 | 3.39907 | 22438 ft | 451 kts | 184° |
| 2026-05-03 20:49 | 7.81287 | 3.39571 | 21748 ft | 452 kts | 184° |
| 2026-05-03 20:49 | 7.78201 | 3.39243 | 21039 ft | 435 kts | 183° |
| 2026-05-03 20:49 | 7.75248 | 3.38931 | 20277 ft | 418 kts | 182° |
| 2026-05-03 20:49 | 7.72409 | 3.38634 | 19640 ft | 402 kts | 182° |
| 2026-05-03 20:50 | 7.69674 | 3.38350 | 19008 ft | 388 kts | 181° |
| 2026-05-03 20:50 | 7.67031 | 3.38078 | 18379 ft | 378 kts | 181° |
| 2026-05-03 20:50 | 7.64424 | 3.37811 | 17676 ft | 374 kts | 181° |
| 2026-05-03 20:50 | 7.61886 | 3.37553 | 16910 ft | 367 kts | 181° |
| 2026-05-03 20:51 | 7.59365 | 3.37295 | 16152 ft | 360 kts | 181° |
| 2026-05-03 20:51 | 7.56899 | 3.37043 | 15418 ft | 353 kts | 181° |
| 2026-05-03 20:51 | 7.54469 | 3.36794 | 14694 ft | 347 kts | 181° |
| 2026-05-03 20:51 | 7.53615 | 3.36707 | 14443 ft | 346 kts | 181° |
| 2026-05-03 20:52 | 7.51239 | 3.36464 | 13739 ft | 341 kts | 181° |
| 2026-05-03 20:52 | 7.48882 | 3.36223 | 12955 ft | 336 kts | 181° |
| 2026-05-03 20:52 | 7.46590 | 3.35988 | 12188 ft | 332 kts | 181° |
| 2026-05-03 20:52 | 7.44316 | 3.35755 | 11513 ft | 325 kts | 181° |
| 2026-05-03 20:53 | 7.42082 | 3.35526 | 10874 ft | 321 kts | 181° |
| 2026-05-03 20:53 | 7.39851 | 3.35298 | 10245 ft | 319 kts | 181° |
| 2026-05-03 20:53 | 7.37651 | 3.35074 | 9613 ft | 317 kts | 181° |
| 2026-05-03 20:53 | 7.35466 | 3.34851 | 8940 ft | 314 kts | 182° |
| 2026-05-03 20:54 | 7.33309 | 3.34630 | 8285 ft | 308 kts | 182° |
| 2026-05-03 20:54 | 7.29200 | 3.34209 | 7031 ft | 294 kts | 183° |
| 2026-05-03 20:54 | 7.27173 | 3.34002 | 6418 ft | 288 kts | 184° |
| 2026-05-03 20:55 | 7.25181 | 3.33798 | 5754 ft | 283 kts | 184° |
| 2026-05-03 20:55 | 7.23238 | 3.33600 | 5238 ft | 273 kts | 185° |
| 2026-05-03 20:55 | 7.21403 | 3.33412 | 5023 ft | 259 kts | 185° |
| 2026-05-03 20:55 | 7.19635 | 3.33231 | 5001 ft | 251 kts | 185° |
| 2026-05-03 20:56 | 7.17908 | 3.33055 | 4952 ft | 251 kts | 185° |
| 2026-05-03 20:56 | 7.16122 | 3.32873 | 4743 ft | 261 kts | 185° |
| 2026-05-03 20:56 | 7.14329 | 3.32690 | 4534 ft | 254 kts | 185° |
| 2026-05-03 20:56 | 7.12589 | 3.32524 | 4497 ft | 249 kts | 183° |
| 2026-05-03 20:57 | 7.10879 | 3.32427 | 4492 ft | 242 kts | 182° |
| 2026-05-03 20:57 | 7.09180 | 3.32347 | 4504 ft | 250 kts | 182° |
| 2026-05-03 20:57 | 7.07426 | 3.32264 | 4501 ft | 259 kts | 182° |
| 2026-05-03 20:57 | 7.05623 | 3.32174 | 4499 ft | 260 kts | 182° |
| 2026-05-03 20:58 | 7.03812 | 3.32080 | 4504 ft | 260 kts | 182° |
| 2026-05-03 20:58 | 7.01997 | 3.31984 | 4495 ft | 260 kts | 182° |
| 2026-05-03 20:58 | 7.00249 | 3.31892 | 4498 ft | 260 kts | 183° |
| 2026-05-03 20:58 | 6.98385 | 3.31698 | 4500 ft | 260 kts | 187° |
| 2026-05-03 20:59 | 6.96597 | 3.31380 | 4498 ft | 261 kts | 193° |
| 2026-05-03 20:59 | 6.94856 | 3.30971 | 4501 ft | 260 kts | 187° |
| 2026-05-03 20:59 | 6.93061 | 3.30834 | 4497 ft | 260 kts | 180° |
| 2026-05-03 20:59 | 6.91249 | 3.30836 | 4494 ft | 254 kts | 178° |
| 2026-05-03 21:00 | 6.89565 | 3.30902 | 4450 ft | 231 kts | 177° |
| 2026-05-03 21:00 | 6.89030 | 3.30920 | 4394 ft | 225 kts | 178° |
| 2026-05-03 21:00 | 6.86531 | 3.30969 | 4054 ft | 209 kts | 179° |
| 2026-05-03 21:00 | 6.85077 | 3.30992 | 4007 ft | 209 kts | 179° |
| 2026-05-03 21:01 | 6.83619 | 3.31013 | 4004 ft | 209 kts | 179° |
| 2026-05-03 21:01 | 6.82165 | 3.31031 | 3998 ft | 208 kts | 179° |
| 2026-05-03 21:01 | 6.81208 | 3.31043 | 4002 ft | 208 kts | 179° |
| 2026-05-03 21:01 | 6.79272 | 3.31063 | 3990 ft | 209 kts | 179° |
| 2026-05-03 21:02 | 6.77817 | 3.31079 | 3998 ft | 209 kts | 179° |
| 2026-05-03 21:02 | 6.76855 | 3.31089 | 3999 ft | 209 kts | 179° |
| 2026-05-03 21:02 | 6.74914 | 3.31111 | 4002 ft | 209 kts | 179° |
| 2026-05-03 21:02 | 6.73488 | 3.31129 | 3845 ft | 206 kts | 179° |
| 2026-05-03 21:03 | 6.72055 | 3.31147 | 3407 ft | 206 kts | 179° |
| 2026-05-03 21:03 | 6.70621 | 3.31165 | 2917 ft | 206 kts | 180° |
| 2026-05-03 21:03 | 6.69230 | 3.31183 | 2426 ft | 204 kts | 180° |
| 2026-05-03 21:03 | 6.67784 | 3.31201 | 1976 ft | 200 kts | 181° |
| 2026-05-03 21:04 | 6.66403 | 3.31217 | 1572 ft | 196 kts | 166° |
| 2026-05-03 21:04 | 6.65069 | 3.31315 | 1225 ft | 189 kts | 177° |
| 2026-05-03 21:04 | 6.63770 | 3.31319 | 904 ft | 184 kts | 185° |
| 2026-05-03 21:04 | 6.62948 | 3.31276 | 780 ft | 173 kts | 180° |
| 2026-05-03 21:05 | 6.61800 | 3.31321 | 589 ft | 156 kts | 179° |
| 2026-05-03 21:05 | 6.60777 | 3.31328 | 414 ft | 141 kts | 181° |
| 2026-05-03 21:05 | 6.59840 | 3.31282 | 284 ft | 128 kts | 178° |
| 2026-05-03 21:05 | 6.58957 | 3.31325 | 160 ft | 127 kts | 182° |
| 2026-05-03 21:06 | 6.58132 | 3.31323 | 86 ft | 114 kts | 181° |
| 2026-05-03 21:06 | 6.57316 | 3.31331 | 73 ft | 42 kts | 179° |
| 2026-05-03 21:06 | 6.57141 | 3.31319 | 77 ft | 34 kts | 182° |
| 2026-05-03 21:06 | 6.56921 | 3.31344 | 70 ft | 30 kts | 179° |
| 2026-05-03 21:07 | 6.56720 | 3.31345 | 82 ft | 27 kts | 176° |
| 2026-05-03 21:07 | 6.56540 | 3.31388 | 70 ft | 27 kts | 160° |
| 2026-05-03 21:07 | 6.56429 | 3.31445 | 64 ft | 6 kts | 143° |
| 2026-05-03 21:07 | 6.56406 | 3.31482 | 64 ft | 6 kts | 104° |
| 2026-05-03 21:08 | 6.56418 | 3.31517 | 62 ft | 4 kts | 45° |
| 2026-05-03 21:08 | 6.56440 | 3.31532 | 70 ft | 3 kts | 23° |
| 2026-05-03 21:08 | 6.56468 | 3.31539 | 72 ft | 6 kts | 11° |
| 2026-05-03 21:08 | 6.56515 | 3.31542 | 68 ft | 8 kts | 2° |
| 2026-05-03 21:09 | 6.56586 | 3.31543 | 71 ft | 12 kts | 0° |
| 2026-05-03 21:09 | 6.56687 | 3.31544 | 70 ft | 16 kts | 0° |
| 2026-05-03 21:09 | 6.56809 | 3.31545 | 78 ft | 19 kts | 0° |
| 2026-05-03 21:09 | 6.56938 | 3.31539 | 80 ft | 15 kts | 1° |
| 2026-05-03 21:10 | 6.57046 | 3.31537 | 77 ft | 16 kts | 357° |
| 2026-05-03 21:10 | 6.57164 | 3.31537 | 76 ft | 19 kts | 0° |
| 2026-05-03 21:10 | 6.57308 | 3.31537 | 74 ft | 23 kts | 0° |
| 2026-05-03 21:10 | 6.57475 | 3.31538 | 74 ft | 25 kts | 0° |
| 2026-05-03 21:11 | 6.57651 | 3.31531 | 65 ft | 24 kts | 5° |
| 2026-05-03 21:11 | 6.57809 | 3.31530 | 72 ft | 23 kts | 357° |
| 2026-05-03 21:11 | 6.57971 | 3.31526 | 71 ft | 24 kts | 1° |
| 2026-05-03 21:11 | 6.58074 | 3.31623 | 89 ft | 20 kts | 68° |
| 2026-05-03 21:12 | 6.58123 | 3.31737 | 98 ft | 16 kts | 66° |
| 2026-05-03 21:12 | 6.58170 | 3.31844 | 101 ft | 18 kts | 67° |
| 2026-05-03 21:12 | 6.58222 | 3.31967 | 100 ft | 20 kts | 63° |
| 2026-05-03 21:12 | 6.58270 | 3.32098 | 101 ft | 21 kts | 82° |
| 2026-05-03 21:13 | 6.58234 | 3.32238 | 103 ft | 21 kts | 113° |
| 2026-05-03 21:13 | 6.58173 | 3.32383 | 103 ft | 23 kts | 124° |
| 2026-05-03 21:13 | 6.58034 | 3.32396 | 101 ft | 18 kts | 197° |
| 2026-05-03 21:13 | 6.58002 | 3.32386 | 99 ft | 2 kts | 197° |
| 2026-05-03 21:14 | 6.57984 | 3.32378 | 99 ft | 4 kts | 206° |
| 2026-05-03 21:14 | 6.57956 | 3.32364 | 101 ft | 5 kts | 205° |
| 2026-05-03 21:14 | 6.57919 | 3.32344 | 101 ft | 7 kts | 216° |
| 2026-05-03 21:14 | 6.57906 | 3.32308 | 100 ft | 5 kts | 271° |
| 2026-05-03 21:15 | 6.57913 | 3.32281 | 100 ft | 0 kts | 288° |
| 2026-05-03 21:15 | 6.57922 | 3.32255 | 103 ft | 0 kts | 291° |
| 2026-05-03 21:15 | 6.57916 | 3.32270 | 100 ft | 0 kts | 291° |